CheckWX is a tool to help pilots better visualize weather data.  It is not intended as a substitute for an official pre-flight weather briefing.

06:46:19 UTC

KBDH METAR
Willmar Municipal-John L Rice Field Airport
Willmar, Minnesota, USA
Current

11 mins ago

KBDH 230635Z AUTO 00000KT 10SM CLR 02/01 A3018 RMK AO2
Observed
Apr-23 @ 06:35 UTC
Visibility
10 SM
Flight Rules
VFR
Cloud Levels
  • Clear skies
Temperature
C / 36°F
Dewpoint
C / 34°F
Humidity
93%
Altimeter
30.18" Hg
Pressure
1022.02 hPa
Previous

31 mins ago

KBDH 230615Z AUTO 31004KT 10SM CLR 03/02 A3018 RMK AO2
Observed
Apr-23 @ 06:15 UTC
Wind
  • 310° at 4 KTS
Visibility
10 SM
Flight Rules
VFR
Cloud Levels
  • Clear skies
Temperature
C / 37°F
Dewpoint
C / 36°F
Humidity
93%
Altimeter
30.18" Hg
Pressure
1022.02 hPa
Previous

50 mins ago

KBDH 230556Z AUTO 30004KT 10SM CLR 03/02 A3018 RMK AO2
Observed
Apr-23 @ 05:56 UTC
Wind
  • 300° at 4 KTS
Visibility
10 SM
Flight Rules
VFR
Cloud Levels
  • Clear skies
Temperature
C / 37°F
Dewpoint
C / 36°F
Humidity
93%
Altimeter
30.18" Hg
Pressure
1022.02 hPa